Time;durP1;ratioP1;P1;durP2;ratioP2;P2;SDS_P1;SDS_P2;PMS_P1;PMS_P2;Temp;Humidity;BMP_temperature;BMP_pressure;BME280_temperature;BME280_humidity;BME280_pressure;Samples;Min_cycle;Max_cycle;Signal;HPM_P1;HPM_P2
2021/06/17 00:01:42;;;;;;;;;;;;;;;18.38;73.40;100353.94;1651555;87;20161;-85
2021/06/17 00:04:08;;;;;;;;;;;;;;;18.33;73.52;100350.90;1654676;87;20133;-85
2021/06/17 00:06:34;;;;;;;;;;;;;;;18.27;73.77;100350.56;1654463;87;20152;-86
2021/06/17 00:08:59;;;;;;;;;;;;;;;18.23;73.50;100351.89;1654582;86;20426;-86
2021/06/17 00:11:25;;;;;;;;;;;;;;;18.21;73.71;100354.38;1654599;87;20439;-85
2021/06/17 00:13:51;;;;;;;;;;;;;;;18.16;73.79;100354.83;1654361;86;20121;-85
2021/06/17 00:16:17;;;;;;;;;;;;;;;18.13;73.90;100355.19;1651126;86;20407;-86
2021/06/17 00:18:44;;;;;;;;;;;;;;;18.10;74.02;100347.48;1626600;88;20163;-86
2021/06/17 00:21:09;;;;;;;;;;;;;;;18.07;74.16;100349.14;1646463;87;20118;-85
2021/06/17 00:23:35;;;;;;;;;;;;;;;18.06;74.11;100352.78;1654448;86;20110;-85
2021/06/17 00:26:03;;;;;;;;;;;;;;;18.03;74.20;100351.30;1654367;86;20097;-85
2021/06/17 00:28:29;;;;;;;;;;;;;;;18.00;74.10;100349.44;1654417;86;20198;-86
2021/06/17 00:30:55;;;;;;;;;;;;;;;17.99;74.46;100351.75;1640499;87;20149;-85
2021/06/17 00:33:21;;;;;;;;;;;;;;;17.96;74.23;100354.73;1626647;88;20132;-85
2021/06/17 00:35:48;;;;;;;;;;;;;;;17.93;74.61;100349.23;1638730;87;20421;-86
2021/06/17 00:38:14;;;;;;;;;;;;;;;17.90;74.52;100347.35;1654375;87;20186;-85
2021/06/17 00:40:40;;;;;;;;;;;;;;;17.88;74.64;100353.37;1652213;86;20102;-85
2021/06/17 00:43:06;;;;;;;;;;;;;;;17.86;74.46;100358.02;1654276;87;20134;-85
2021/06/17 00:45:36;;;;;;;;;;;;;;;17.83;74.60;100357.83;1654036;86;20490;-85
2021/06/17 00:48:03;;;;;;;;;;;;;;;17.79;74.67;100353.80;1652275;86;20158;-85
2021/06/17 00:50:35;;;;;;;;;;;;;;;17.77;74.67;100357.98;1650450;86;20197;-85
2021/06/17 00:53:01;;;;;;;;;;;;;;;17.75;75.12;100357.76;1654506;86;20143;-85
2021/06/17 00:55:27;;;;;;;;;;;;;;;17.71;75.06;100357.73;1654568;87;20198;-85
2021/06/17 00:57:53;;;;;;;;;;;;;;;17.67;75.21;100363.02;1632263;87;20103;-86
2021/06/17 01:00:20;;;;;;;;;;;;;;;17.63;75.24;100356.33;1630773;87;20467;-85
2021/06/17 01:02:46;;;;;;;;;;;;;;;17.60;75.44;100358.81;1627607;87;20119;-85
2021/06/17 01:05:15;;;;;;;;;;;;;;;17.55;75.48;100359.79;1653806;87;20397;-86
2021/06/17 01:08:05;;;;;;;;;;;;;;;17.53;75.46;100359.09;1654156;86;20173;-85
2021/06/17 01:10:53;;;;;;;;;;;;;;;17.49;75.66;100361.74;1653256;87;20138;-88
2021/06/17 01:13:29;;;;;;;;;;;;;;;17.45;75.53;100362.55;1654514;86;20117;-88
2021/06/17 01:16:01;;;;;;;;;;;;;;;17.43;75.59;100358.36;1654262;86;20147;-88
2021/06/17 01:18:28;;;;;;;;;;;;;;;17.39;75.86;100364.50;1615835;86;20149;-88
2021/06/17 01:20:56;;;;;;;;;;;;;;;17.34;75.90;100355.64;1647082;86;20103;-88
2021/06/17 01:23:49;;;;;;;;;;;;;;;17.31;76.02;100355.95;1653980;85;20150;-88
2021/06/17 01:26:51;;;;;;;;;;;;;;;17.28;76.02;100357.59;1654105;86;20142;-88
2021/06/17 01:29:20;;;;;;;;;;;;;;;17.25;76.02;100359.22;1654747;86;20124;-88
2021/06/17 01:31:46;;;;;;;;;;;;;;;17.21;76.17;100363.19;1653327;87;20168;-88
2021/06/17 01:34:14;;;;;;;;;;;;;;;17.18;76.27;100357.33;1654441;86;20992;-88
2021/06/17 01:36:47;;;;;;;;;;;;;;;17.17;76.27;100361.80;1654494;86;20140;-88
2021/06/17 01:39:12;;;;;;;;;;;;;;;17.15;76.33;100355.80;1653934;86;20144;-88
2021/06/17 01:41:41;;;;;;;;;;;;;;;17.11;76.15;100348.61;1644830;86;20430;-87
2021/06/17 01:44:09;;;;;;;;;;;;;;;17.11;76.33;100356.61;1626943;87;20111;-88
2021/06/17 01:46:35;;;;;;;;;;;;;;;17.09;76.39;100354.58;1631963;87;20152;-87
2021/06/17 01:49:02;;;;;;;;;;;;;;;17.08;76.46;100356.08;1652059;87;20133;-87
2021/06/17 01:51:29;;;;;;;;;;;;;;;17.07;76.63;100354.38;1653869;86;20137;-87
2021/06/17 01:53:55;;;;;;;;;;;;;;;17.05;76.65;100359.05;1654622;86;20113;-87
2021/06/17 01:56:23;;;;;;;;;;;;;;;17.04;76.49;100358.69;1641386;87;20170;-87
2021/06/17 01:58:54;;;;;;;;;;;;;;;17.01;76.55;100361.18;1654518;87;20107;-87
2021/06/17 02:01:23;;;;;;;;;;;;;;;17.01;76.80;100357.65;1647907;86;20397;-87
2021/06/17 02:03:49;;;;;;;;;;;;;;;16.99;77.00;100356.98;1637775;87;20402;-87
2021/06/17 02:06:16;;;;;;;;;;;;;;;16.98;77.07;100356.63;1643929;87;20170;-87
2021/06/17 02:08:44;;;;;;;;;;;;;;;16.95;77.06;100357.78;1653657;87;20132;-87
2021/06/17 02:11:10;;;;;;;;;;;;;;;16.93;77.06;100358.42;1648950;86;20145;-88
2021/06/17 02:13:36;;;;;;;;;;;;;;;16.91;77.30;100365.72;1654410;87;20577;-87
2021/06/17 02:16:04;;;;;;;;;;;;;;;16.90;77.50;100364.05;1654552;86;20157;-87
2021/06/17 02:18:30;;;;;;;;;;;;;;;16.88;77.36;100367.38;1654267;86;20128;-87
2021/06/17 02:20:56;;;;;;;;;;;;;;;16.85;77.27;100360.52;1646932;86;20414;-87
2021/06/17 02:23:22;;;;;;;;;;;;;;;16.84;77.49;100361.98;1636420;87;20157;-87
2021/06/17 02:25:52;;;;;;;;;;;;;;;16.82;77.26;100361.32;1654570;87;20151;-87
2021/06/17 02:28:20;;;;;;;;;;;;;;;16.80;77.53;100359.28;1656128;86;20171;-87
2021/06/17 02:30:48;;;;;;;;;;;;;;;16.77;77.63;100353.76;1654821;86;20136;-87
2021/06/17 02:33:16;;;;;;;;;;;;;;;16.76;77.39;100356.09;1649193;87;20109;-87
2021/06/17 02:35:44;;;;;;;;;;;;;;;16.75;77.71;100354.42;1654230;87;20142;-87
2021/06/17 02:38:11;;;;;;;;;;;;;;;16.73;77.85;100349.69;1654556;86;20109;-87
2021/06/17 02:40:40;;;;;;;;;;;;;;;16.71;77.82;100358.32;1651352;86;20196;-87
2021/06/17 02:43:10;;;;;;;;;;;;;;;16.70;77.99;100358.48;1652788;87;20154;-86
2021/06/17 02:45:36;;;;;;;;;;;;;;;16.65;78.05;100354.95;1654168;87;20372;-86
2021/06/17 02:48:02;;;;;;;;;;;;;;;16.64;77.99;100359.41;1654003;86;20152;-86
2021/06/17 02:50:28;;;;;;;;;;;;;;;16.63;78.23;100352.92;1653939;87;20166;-86
2021/06/17 02:52:54;;;;;;;;;;;;;;;16.60;78.17;100354.05;1654454;86;20105;-86
2021/06/17 02:55:20;;;;;;;;;;;;;;;16.59;78.41;100352.87;1654573;87;20395;-86
2021/06/17 02:57:54;;;;;;;;;;;;;;;16.58;78.31;100360.03;1654559;87;20094;-85
2021/06/17 03:00:23;;;;;;;;;;;;;;;16.56;78.39;100351.34;1649440;87;20141;-85
2021/06/17 03:03:08;;;;;;;;;;;;;;;16.54;78.32;100356.47;1652775;86;20441;-85
2021/06/17 03:05:42;;;;;;;;;;;;;;;16.53;78.17;100358.30;1651725;86;20192;-85
2021/06/17 03:08:20;;;;;;;;;;;;;;;16.52;78.63;100353.11;1650072;87;20129;-85
2021/06/17 03:10:51;;;;;;;;;;;;;;;16.50;78.54;100355.09;1650525;87;20171;-85
2021/06/17 03:13:18;;;;;;;;;;;;;;;16.47;78.94;100358.89;1640563;87;20111;-85
2021/06/17 03:15:45;;;;;;;;;;;;;;;16.46;78.93;100354.56;1656374;86;20160;-85
2021/06/17 03:18:12;;;;;;;;;;;;;;;16.46;79.00;100364.38;1654420;86;20122;-85
2021/06/17 03:20:40;;;;;;;;;;;;;;;16.45;79.34;100360.02;1652449;86;20125;-85
2021/06/17 03:23:08;;;;;;;;;;;;;;;16.43;79.25;100363.34;1644106;87;20409;-85
2021/06/17 03:25:36;;;;;;;;;;;;;;;16.39;79.03;100363.64;1636665;87;20144;-85
2021/06/17 03:28:02;;;;;;;;;;;;;;;16.40;79.17;100367.14;1626502;88;20430;-85
2021/06/17 03:30:29;;;;;;;;;;;;;;;16.37;79.48;100366.93;1643874;87;20145;-85
2021/06/17 03:32:57;;;;;;;;;;;;;;;16.35;79.58;100366.26;1644505;87;20136;-85
2021/06/17 03:35:24;;;;;;;;;;;;;;;16.34;79.48;100368.55;1654600;86;20121;-85
2021/06/17 03:37:50;;;;;;;;;;;;;;;16.32;79.85;100363.02;1653946;87;20543;-85
2021/06/17 03:40:17;;;;;;;;;;;;;;;16.30;79.89;100360.52;1649601;87;20097;-85
2021/06/17 03:42:44;;;;;;;;;;;;;;;16.31;80.12;100368.02;1650566;86;20416;-85
2021/06/17 03:45:11;;;;;;;;;;;;;;;16.31;79.76;100359.53;1629930;87;20160;-85
2021/06/17 03:47:37;;;;;;;;;;;;;;;16.31;80.05;100355.53;1636238;87;20190;-85
2021/06/17 03:50:05;;;;;;;;;;;;;;;16.32;79.87;100356.37;1639866;87;20135;-85
2021/06/17 03:52:31;;;;;;;;;;;;;;;16.34;79.88;100359.73;1632487;87;20152;-85
2021/06/17 03:54:57;;;;;;;;;;;;;;;16.35;80.19;100358.27;1650815;87;20399;-85
2021/06/17 03:57:23;;;;;;;;;;;;;;;16.37;80.14;100354.95;1632083;87;20117;-85
2021/06/17 03:59:51;;;;;;;;;;;;;;;16.41;80.44;100354.16;1654455;86;20223;-85
2021/06/17 04:02:17;;;;;;;;;;;;;;;16.43;80.46;100352.19;1627858;87;20154;-85
2021/06/17 04:04:43;;;;;;;;;;;;;;;16.47;80.43;100354.06;1651453;87;20110;-85
2021/06/17 04:07:12;;;;;;;;;;;;;;;16.50;80.66;100354.60;1632880;87;20167;-85
2021/06/17 04:09:40;;;;;;;;;;;;;;;16.53;80.51;100350.81;1653673;86;20117;-85
2021/06/17 04:12:08;;;;;;;;;;;;;;;16.56;80.87;100350.02;1637152;87;20151;-85
2021/06/17 04:14:36;;;;;;;;;;;;;;;16.59;80.87;100350.22;1651639;87;20097;-85
2021/06/17 04:17:04;;;;;;;;;;;;;;;16.63;80.94;100358.25;1654465;86;20175;-85
2021/06/17 04:19:31;;;;;;;;;;;;;;;16.68;81.11;100357.78;1641812;87;20123;-85
2021/06/17 04:22:00;;;;;;;;;;;;;;;16.71;81.23;100354.82;1638832;87;20123;-85
2021/06/17 04:24:26;;;;;;;;;;;;;;;16.75;81.07;100354.89;1651037;87;20133;-85
2021/06/17 04:26:54;;;;;;;;;;;;;;;16.77;81.44;100351.09;1653755;87;20543;-85
2021/06/17 04:29:20;;;;;;;;;;;;;;;16.81;81.65;100352.49;1653588;86;20420;-85
2021/06/17 04:31:49;;;;;;;;;;;;;;;16.86;81.60;100352.86;1642869;86;20127;-85
2021/06/17 04:34:15;;;;;;;;;;;;;;;16.91;81.51;100348.89;1626746;87;20135;-85
2021/06/17 04:36:42;;;;;;;;;;;;;;;16.96;81.72;100355.45;1626696;87;20131;-85
2021/06/17 04:39:08;;;;;;;;;;;;;;;17.00;81.64;100347.98;1644041;87;20135;-85
2021/06/17 04:41:36;;;;;;;;;;;;;;;17.05;81.79;100345.72;1647396;87;20147;-86
2021/06/17 04:44:03;;;;;;;;;;;;;;;17.11;81.94;100354.44;1639343;86;20190;-86
2021/06/17 04:46:30;;;;;;;;;;;;;;;17.15;81.75;100351.80;1626962;87;20585;-86
2021/06/17 04:48:56;;;;;;;;;;;;;;;17.21;81.92;100354.33;1647150;87;20190;-85
2021/06/17 04:51:24;;;;;;;;;;;;;;;17.26;81.97;100360.89;1653963;87;20185;-88
2021/06/17 04:53:53;;;;;;;;;;;;;;;17.30;81.92;100362.75;1641043;86;20123;-88
2021/06/17 04:56:18;;;;;;;;;;;;;;;17.38;81.96;100362.00;1640326;87;20134;-88
2021/06/17 04:58:47;;;;;;;;;;;;;;;17.43;81.94;100357.02;1648167;86;20472;-87
2021/06/17 05:01:12;;;;;;;;;;;;;;;17.48;81.98;100362.24;1654244;87;20509;-87
2021/06/17 05:03:37;;;;;;;;;;;;;;;17.53;81.74;100361.27;1654555;87;20130;-87
2021/06/17 05:06:04;;;;;;;;;;;;;;;17.58;81.60;100361.65;1654534;87;20130;-87
2021/06/17 05:11:14;;;;;;;;;;;;;;;17.70;81.68;100362.24;1654457;87;20118;-87
2021/06/17 05:13:43;;;;;;;;;;;;;;;17.77;81.72;100354.48;1654692;87;20422;-87
2021/06/17 05:16:07;;;;;;;;;;;;;;;17.81;81.78;100353.99;1654134;86;20163;-87
2021/06/17 05:18:33;;;;;;;;;;;;;;;17.89;81.88;100361.70;1654414;86;20418;-88
2021/06/17 05:20:59;;;;;;;;;;;;;;;17.93;81.57;100357.25;1654486;87;20106;-88
2021/06/17 05:23:25;;;;;;;;;;;;;;;18.02;81.34;100364.78;1654271;87;20265;-88
2021/06/17 05:25:53;;;;;;;;;;;;;;;18.09;81.38;100363.65;1654590;87;20386;-88
2021/06/17 05:28:21;;;;;;;;;;;;;;;18.16;81.37;100363.34;1631391;87;20130;-88
2021/06/17 05:30:48;;;;;;;;;;;;;;;18.22;81.29;100359.54;1654572;87;20132;-88
2021/06/17 05:33:14;;;;;;;;;;;;;;;18.31;81.13;100366.27;1654374;87;20111;-89
2021/06/17 05:35:40;;;;;;;;;;;;;;;18.36;81.07;100352.78;1654569;87;20167;-88
2021/06/17 05:38:06;;;;;;;;;;;;;;;18.43;81.11;100354.30;1654437;87;20504;-89
2021/06/17 05:40:32;;;;;;;;;;;;;;;18.50;80.93;100358.00;1654684;87;20111;-88
2021/06/17 05:42:58;;;;;;;;;;;;;;;18.56;80.78;100359.16;1654417;87;20135;-89
2021/06/17 05:45:24;;;;;;;;;;;;;;;18.63;81.00;100356.20;1654660;87;20167;-88
2021/06/17 05:47:49;;;;;;;;;;;;;;;18.70;81.20;100358.05;1654521;87;20119;-88
2021/06/17 05:50:15;;;;;;;;;;;;;;;18.79;81.08;100354.08;1654722;87;20142;-89
2021/06/17 05:52:41;;;;;;;;;;;;;;;18.85;80.98;100349.42;1654521;86;20134;-89
2021/06/17 05:55:08;;;;;;;;;;;;;;;18.91;80.13;100347.42;1654659;87;20159;-90
2021/06/17 05:57:36;;;;;;;;;;;;;;;18.97;80.10;100348.94;1654638;87;20183;-88
2021/06/17 06:00:03;;;;;;;;;;;;;;;19.05;80.33;100346.80;1654764;86;20110;-90
2021/06/17 06:02:28;;;;;;;;;;;;;;;19.13;80.36;100352.14;1654506;86;20130;-89
2021/06/17 06:04:54;;;;;;;;;;;;;;;19.20;79.89;100350.97;1654782;86;20453;-90
2021/06/17 06:07:20;;;;;;;;;;;;;;;19.29;79.95;100359.34;1654444;87;20425;-89
2021/06/17 06:09:46;;;;;;;;;;;;;;;19.37;79.87;100354.48;1654952;87;20126;-89
2021/06/17 06:12:14;;;;;;;;;;;;;;;19.44;79.73;100352.30;1654419;86;20131;-90
2021/06/17 06:14:40;;;;;;;;;;;;;;;19.53;79.95;100358.99;1654420;87;20138;-90
2021/06/17 06:17:06;;;;;;;;;;;;;;;19.61;79.51;100355.81;1654629;86;20202;-90
2021/06/17 06:19:33;;;;;;;;;;;;;;;19.68;79.07;100351.48;1654887;86;20144;-89
2021/06/17 06:21:59;;;;;;;;;;;;;;;19.77;79.00;100358.14;1654803;87;20146;-89
2021/06/17 06:24:25;;;;;;;;;;;;;;;19.85;78.46;100356.30;1654936;87;20190;-90
2021/06/17 06:26:56;;;;;;;;;;;;;;;19.93;78.36;100362.64;1654643;87;20147;-90
2021/06/17 06:29:18;;;;;;;;;;;;;;;20.02;78.22;100359.77;1654298;87;20442;-90
2021/06/17 06:31:44;;;;;;;;;;;;;;;20.10;77.90;100360.23;1654788;86;20099;-91
2021/06/17 06:34:10;;;;;;;;;;;;;;;20.19;77.37;100359.20;1654980;87;20159;-91
2021/06/17 06:36:35;;;;;;;;;;;;;;;20.27;77.70;100367.70;1654921;86;20425;-90
2021/06/17 06:39:01;;;;;;;;;;;;;;;20.35;77.54;100375.73;1654977;86;20420;-89
2021/06/17 06:41:27;;;;;;;;;;;;;;;20.43;77.32;100373.00;1662023;85;20146;-90
2021/06/17 06:43:52;;;;;;;;;;;;;;;20.52;77.29;100368.48;1665727;85;20095;-89
2021/06/17 06:46:18;;;;;;;;;;;;;;;20.60;77.47;100380.02;1665829;85;20428;-91
2021/06/17 06:48:44;;;;;;;;;;;;;;;20.71;77.21;100383.30;1665168;85;20105;-93
2021/06/17 06:51:10;;;;;;;;;;;;;;;20.79;76.70;100379.23;1669698;85;20155;-91
2021/06/17 06:53:35;;;;;;;;;;;;;;;20.87;76.04;100381.88;1667410;85;20459;-90
2021/06/17 06:56:01;;;;;;;;;;;;;;;20.96;75.81;100378.14;1670561;85;20132;-91
2021/06/17 06:58:27;;;;;;;;;;;;;;;21.06;76.18;100387.30;1666675;84;20172;-90
2021/06/17 07:00:53;;;;;;;;;;;;;;;21.14;75.14;100385.05;1674206;84;20107;-91
2021/06/17 07:03:19;;;;;;;;;;;;;;;21.22;75.06;100388.52;1666782;85;20105;-89
2021/06/17 07:05:45;;;;;;;;;;;;;;;21.32;74.71;100394.96;1666928;85;20141;-88
2021/06/17 07:08:11;;;;;;;;;;;;;;;21.42;74.39;100400.98;1669758;85;20130;-90
2021/06/17 07:10:48;;;;;;;;;;;;;;;21.51;74.34;100400.38;1667869;85;20145;-91
2021/06/17 07:13:14;;;;;;;;;;;;;;;21.62;74.40;100405.83;1668840;85;20111;-90
2021/06/17 07:15:41;;;;;;;;;;;;;;;21.74;73.46;100407.06;1668357;85;20454;-90
2021/06/17 07:18:07;;;;;;;;;;;;;;;21.82;73.45;100402.14;1666731;85;20136;-91
2021/06/17 07:20:33;;;;;;;;;;;;;;;21.92;73.46;100408.91;1669392;85;20135;-89
2021/06/17 07:22:59;;;;;;;;;;;;;;;22.06;73.03;100409.11;1665852;85;20405;-90
2021/06/17 07:25:26;;;;;;;;;;;;;;;22.18;72.53;100413.05;1669624;85;20111;-91
2021/06/17 07:27:52;;;;;;;;;;;;;;;22.29;72.65;100407.20;1666871;85;20136;-89
2021/06/17 07:30:19;;;;;;;;;;;;;;;22.39;72.42;100397.00;1660793;84;20165;-90
2021/06/17 07:32:45;;;;;;;;;;;;;;;22.48;72.02;100402.61;1654617;86;20145;-88
2021/06/17 07:35:12;;;;;;;;;;;;;;;22.59;71.69;100401.80;1654825;86;20138;-91
2021/06/17 07:37:37;;;;;;;;;;;;;;;22.72;69.79;100408.69;1654652;86;20137;-89
2021/06/17 07:40:10;;;;;;;;;;;;;;;22.84;69.79;100408.53;1655003;86;20146;-89
2021/06/17 07:42:36;;;;;;;;;;;;;;;22.98;70.55;100408.19;1654782;86;20125;-89
2021/06/17 07:45:03;;;;;;;;;;;;;;;23.09;69.82;100404.98;1654852;86;20400;-90
2021/06/17 07:47:28;;;;;;;;;;;;;;;23.19;69.63;100410.05;1654672;86;20109;-90
2021/06/17 07:49:54;;;;;;;;;;;;;;;23.30;68.54;100414.95;1654895;86;20093;-88
2021/06/17 07:52:20;;;;;;;;;;;;;;;23.43;68.59;100414.25;1654727;87;20113;-88
2021/06/17 07:54:45;;;;;;;;;;;;;;;23.55;67.51;100418.58;1654809;86;20129;-91
2021/06/17 07:57:11;;;;;;;;;;;;;;;23.66;67.10;100420.77;1654712;86;20109;-90
2021/06/17 07:59:37;;;;;;;;;;;;;;;23.77;66.57;100418.08;1654713;86;20168;-89
2021/06/17 08:02:03;;;;;;;;;;;;;;;23.87;66.63;100411.31;1654904;86;20144;-91
2021/06/17 08:04:29;;;;;;;;;;;;;;;23.99;65.78;100414.31;1654864;86;20140;-90
2021/06/17 08:06:55;;;;;;;;;;;;;;;24.09;66.08;100405.88;1654667;86;20157;-89
2021/06/17 08:09:23;;;;;;;;;;;;;;;24.21;65.63;100411.02;1654919;86;20144;-90
2021/06/17 08:11:50;;;;;;;;;;;;;;;24.34;66.12;100407.04;1654563;86;20146;-89
2021/06/17 08:14:22;;;;;;;;;;;;;;;24.48;65.46;100403.09;1654877;86;20160;-90
2021/06/17 08:16:43;;;;;;;;;;;;;;;24.60;64.44;100404.19;1653657;86;20178;-91
2021/06/17 08:19:09;;;;;;;;;;;;;;;24.69;65.02;100405.69;1654941;86;20134;-90
2021/06/17 08:21:34;;;;;;;;;;;;;;;24.78;65.30;100402.30;1654812;87;20204;-89
2021/06/17 08:24:00;;;;;;;;;;;;;;;24.91;62.84;100406.39;1654930;86;20153;-91
2021/06/17 08:26:26;;;;;;;;;;;;;;;25.00;62.56;100401.62;1654822;86;20121;-87
2021/06/17 08:28:52;;;;;;;;;;;;;;;25.10;61.86;100409.33;1654868;86;20109;-89
2021/06/17 08:31:18;;;;;;;;;;;;;;;25.20;61.20;100404.39;1654982;86;20137;-92
2021/06/17 08:33:43;;;;;;;;;;;;;;;25.31;61.99;100405.68;1654857;86;20467;-91
2021/06/17 08:36:10;;;;;;;;;;;;;;;25.41;60.87;100402.05;1654989;86;20128;-89
2021/06/17 08:38:36;;;;;;;;;;;;;;;25.48;60.30;100401.01;1654616;86;20133;-87
2021/06/17 08:41:04;;;;;;;;;;;;;;;25.59;59.22;100400.07;1654743;86;20129;-88
2021/06/17 08:43:30;;;;;;;;;;;;;;;25.61;58.97;100396.13;1654568;87;20145;-90
2021/06/17 08:45:56;;;;;;;;;;;;;;;25.80;57.81;100403.06;1654787;86;20450;-90
2021/06/17 08:48:22;;;;;;;;;;;;;;;25.88;57.48;100404.25;1654563;86;20097;-89
2021/06/17 08:50:48;;;;;;;;;;;;;;;25.96;56.95;100406.23;1654727;86;20125;-88
2021/06/17 08:53:14;;;;;;;;;;;;;;;26.04;56.29;100401.11;1654251;86;20113;-89
2021/06/17 08:55:40;;;;;;;;;;;;;;;26.11;55.76;100403.27;1654620;86;20119;-88
2021/06/17 08:58:07;;;;;;;;;;;;;;;26.22;56.59;100405.02;1654729;86;20133;-89
2021/06/17 09:00:35;;;;;;;;;;;;;;;26.31;56.82;100406.45;1654879;86;20134;-90
2021/06/17 09:03:13;;;;;;;;;;;;;;;26.40;56.55;100414.13;1654658;86;20109;-89
2021/06/17 09:05:50;;;;;;;;;;;;;;;26.49;55.47;100406.64;1654612;86;20124;-88
2021/06/17 09:08:26;;;;;;;;;;;;;;;26.60;54.93;100407.84;1644045;86;20420;-88
2021/06/17 09:10:53;;;;;;;;;;;;;;;26.69;52.49;100414.68;1654836;86;20109;-88
2021/06/17 09:13:20;;;;;;;;;;;;;;;26.76;53.75;100416.00;1654630;87;20134;-88
2021/06/17 09:15:54;;;;;;;;;;;;;;;26.85;54.25;100414.19;1654657;86;20140;-88
2021/06/17 09:18:29;;;;;;;;;;;;;;;26.95;52.21;100417.78;1654457;86;20133;-87
2021/06/17 09:21:06;;;;;;;;;;;;;;;27.04;52.59;100420.52;1654776;86;20113;-88
2021/06/17 09:23:40;;;;;;;;;;;;;;;27.16;51.89;100418.52;1654472;86;20133;-88
2021/06/17 09:26:12;;;;;;;;;;;;;;;27.24;52.08;100410.13;1654702;86;20475;-88
2021/06/17 09:28:51;;;;;;;;;;;;;;;27.29;51.21;100397.59;1654466;86;20176;-88
2021/06/17 09:31:26;;;;;;;;;;;;;;;27.37;51.46;100400.55;1654783;86;20137;-89
2021/06/17 09:33:53;;;;;;;;;;;;;;;27.44;51.21;100392.37;1654528;86;20137;-89
2021/06/17 09:36:29;;;;;;;;;;;;;;;27.53;49.84;100397.82;1654674;87;20145;-88
2021/06/17 09:38:57;;;;;;;;;;;;;;;27.60;50.74;100399.42;1654610;86;20157;-89
2021/06/17 09:41:46;;;;;;;;;;;;;;;27.67;51.06;100402.07;1654980;86;20113;-87
2021/06/17 09:44:33;;;;;;;;;;;;;;;27.76;50.81;100401.27;1653160;86;20101;-89
2021/06/17 09:47:21;;;;;;;;;;;;;;;27.86;49.73;100400.80;1654442;86;20578;-89
2021/06/17 09:49:47;;;;;;;;;;;;;;;27.92;49.34;100402.09;1654587;86;20180;-90
2021/06/17 09:52:14;;;;;;;;;;;;;;;27.99;49.56;100399.31;1654476;86;20109;-90
2021/06/17 09:54:42;;;;;;;;;;;;;;;28.05;49.68;100397.89;1654937;86;20105;-90
2021/06/17 09:57:18;;;;;;;;;;;;;;;28.14;48.74;100398.97;1654360;86;20495;-89
2021/06/17 09:59:45;;;;;;;;;;;;;;;28.23;48.52;100400.30;1654816;86;20170;-89
2021/06/17 10:02:17;;;;;;;;;;;;;;;28.28;47.71;100397.22;1654690;86;20170;-90
2021/06/17 10:04:42;;;;;;;;;;;;;;;28.35;48.77;100397.68;1654727;86;20522;-89
2021/06/17 10:07:08;;;;;;;;;;;;;;;28.41;47.16;100388.14;1654847;86;20117;-90
2021/06/17 10:09:34;;;;;;;;;;;;;;;28.47;47.12;100381.80;1654888;87;20145;-88
2021/06/17 10:12:00;;;;;;;;;;;;;;;28.52;46.35;100378.39;1654516;86;20244;-88
2021/06/17 10:14:27;;;;;;;;;;;;;;;28.57;46.56;100373.13;1641450;87;20443;-89
2021/06/17 10:16:53;;;;;;;;;;;;;;;28.63;46.74;100363.22;1654633;86;20145;-88
2021/06/17 10:19:19;;;;;;;;;;;;;;;28.65;46.72;100358.39;1654852;87;20113;-86
2021/06/17 10:21:46;;;;;;;;;;;;;;;28.79;46.57;100362.58;1654748;86;20134;-89
2021/06/17 10:24:20;;;;;;;;;;;;;;;28.88;47.23;100363.91;1654761;87;20428;-91
2021/06/17 10:26:49;;;;;;;;;;;;;;;28.97;46.78;100361.71;1654563;87;20133;-88
2021/06/17 10:29:30;;;;;;;;;;;;;;;29.04;47.22;100362.47;1654843;86;20174;-89
2021/06/17 10:31:57;;;;;;;;;;;;;;;29.15;45.88;100363.02;1654300;86;20173;-90
2021/06/17 10:34:29;;;;;;;;;;;;;;;29.27;45.78;100366.30;1654776;87;20439;-89
2021/06/17 10:37:25;;;;;;;;;;;;;;;29.34;45.15;100371.92;1655058;85;20153;-87
2021/06/17 10:40:10;;;;;;;;;;;;;;;29.40;44.81;100373.70;1650872;87;20137;-89
2021/06/17 10:42:43;;;;;;;;;;;;;;;29.50;44.91;100381.28;1599210;88;20153;-88
2021/06/17 10:45:39;;;;;;;;;;;;;;;29.56;45.24;100376.80;1619407;88;20168;-88
2021/06/17 10:48:06;;;;;;;;;;;;;;;29.62;43.94;100377.26;1627886;88;20140;-89
2021/06/17 10:50:50;;;;;;;;;;;;;;;29.67;44.38;100372.75;1627806;88;20166;-89
2021/06/17 10:53:40;;;;;;;;;;;;;;;29.74;44.43;100372.63;1627992;87;20111;-87
2021/06/17 10:56:26;;;;;;;;;;;;;;;29.82;42.89;100370.93;1650849;87;20172;-88
2021/06/17 10:58:56;;;;;;;;;;;;;;;29.86;42.74;100363.94;1650257;87;20144;-89
2021/06/17 11:01:31;;;;;;;;;;;;;;;29.94;42.92;100360.56;1651511;86;20165;-89
2021/06/17 11:04:06;;;;;;;;;;;;;;;29.99;43.30;100353.34;1651759;86;20125;-89
2021/06/17 11:06:53;;;;;;;;;;;;;;;30.06;42.73;100350.50;1651681;86;20146;-89
2021/06/17 11:09:42;;;;;;;;;;;;;;;30.12;42.75;100354.45;1651706;87;20148;-88
2021/06/17 11:12:20;;;;;;;;;;;;;;;30.17;41.90;100347.45;1651460;87;20407;-91
2021/06/17 11:14:51;;;;;;;;;;;;;;;30.21;42.37;100350.87;1651827;86;20129;-91
2021/06/17 11:17:33;;;;;;;;;;;;;;;30.24;41.25;100346.30;1651832;86;20429;-89
2021/06/17 11:20:06;;;;;;;;;;;;;;;30.30;42.46;100343.13;1651494;87;20148;-89
2021/06/17 11:22:47;;;;;;;;;;;;;;;30.37;42.23;100336.50;1651736;86;20102;-89
2021/06/17 11:25:20;;;;;;;;;;;;;;;30.44;42.34;100336.36;1651551;86;20093;-90
2021/06/17 11:28:04;;;;;;;;;;;;;;;30.49;41.94;100326.09;1651789;86;20133;-88
2021/06/17 11:30:43;;;;;;;;;;;;;;;30.52;42.00;100330.52;1651765;86;20133;-88
2021/06/17 11:33:19;;;;;;;;;;;;;;;30.61;41.54;100339.14;1654481;86;20132;-86
2021/06/17 11:35:58;;;;;;;;;;;;;;;30.64;40.75;100338.66;1654585;87;20161;-88
2021/06/17 11:38:29;;;;;;;;;;;;;;;30.69;41.20;100341.45;1654386;87;20137;-88
2021/06/17 11:40:56;;;;;;;;;;;;;;;30.72;41.48;100331.98;1654723;87;20144;-88
2021/06/17 11:43:27;;;;;;;;;;;;;;;30.77;41.47;100338.39;1654122;87;20141;-88
2021/06/17 11:45:53;;;;;;;;;;;;;;;30.83;41.38;100346.95;1653760;86;20145;-88
2021/06/17 11:48:25;;;;;;;;;;;;;;;30.90;40.53;100344.58;1654207;87;20399;-88
2021/06/17 11:50:52;;;;;;;;;;;;;;;30.96;41.70;100340.88;1654572;86;20441;-88
2021/06/17 11:53:20;;;;;;;;;;;;;;;31.04;40.33;100336.41;1654466;86;20153;-88
2021/06/17 11:55:47;;;;;;;;;;;;;;;31.11;41.15;100337.06;1654223;87;20156;-88
2021/06/17 11:58:13;;;;;;;;;;;;;;;31.17;39.36;100330.62;1654528;86;20105;-87
2021/06/17 12:00:39;;;;;;;;;;;;;;;31.21;39.09;100329.05;1654225;86;20177;-89
2021/06/17 12:03:20;;;;;;;;;;;;;;;31.27;37.52;100322.62;1654566;86;20105;-87
2021/06/17 12:05:47;;;;;;;;;;;;;;;31.31;38.57;100316.95;1652674;86;20149;-86
2021/06/17 12:08:12;;;;;;;;;;;;;;;31.37;38.53;100324.71;1654300;87;20105;-86
2021/06/17 12:10:41;;;;;;;;;;;;;;;31.39;37.72;100319.00;1654715;87;20137;-87
2021/06/17 12:13:08;;;;;;;;;;;;;;;31.38;36.25;100312.72;1653951;86;20141;-87
2021/06/17 12:15:37;;;;;;;;;;;;;;;31.35;35.58;100306.95;1654542;86;20157;-85
2021/06/17 12:18:10;;;;;;;;;;;;;;;31.34;35.66;100314.84;1654100;86;20164;-87
2021/06/17 12:20:42;;;;;;;;;;;;;;;31.32;36.40;100309.59;1654661;86;20176;-90
2021/06/17 12:23:10;;;;;;;;;;;;;;;31.31;34.06;100316.13;1654253;86;20145;-89
2021/06/17 12:25:45;;;;;;;;;;;;;;;31.27;35.28;100313.62;1654289;87;20141;-87
2021/06/17 12:28:13;;;;;;;;;;;;;;;31.26;35.60;100316.03;1654529;87;20133;-87
2021/06/17 12:30:46;;;;;;;;;;;;;;;31.27;34.88;100319.89;1653703;86;20423;-86
2021/06/17 12:33:21;;;;;;;;;;;;;;;31.29;35.92;100309.58;1651749;86;20141;-87
2021/06/17 12:35:56;;;;;;;;;;;;;;;31.33;35.90;100303.63;1651415;86;20150;-87
2021/06/17 12:38:37;;;;;;;;;;;;;;;31.39;35.45;100301.28;1651511;86;20140;-85
2021/06/17 12:41:17;;;;;;;;;;;;;;;31.42;35.54;100303.51;1651079;86;20136;-87
2021/06/17 12:43:46;;;;;;;;;;;;;;;31.45;35.04;100304.38;1651659;86;20140;-87
2021/06/17 12:46:12;;;;;;;;;;;;;;;31.45;35.68;100294.28;1651710;86;20137;-87
2021/06/17 12:49:09;;;;;;;;;;;;;;;31.47;35.23;100294.05;1651181;86;20125;-86